Time;durP1;ratioP1;P1;durP2;ratioP2;P2;SDS_P1;SDS_P2;PMS_P1;PMS_P2;Temp;Humidity;BMP_temperature;BMP_pressure;BME280_temperature;BME280_humidity;BME280_pressure;Samples;Min_cycle;Max_cycle;Signal;HPM_P1;HPM_P2
2023/01/15 00:02:16;;;;;;;11.93;2.67;;;6.40;99.90;;;;;;4969007;28;20157;-91
2023/01/15 00:04:41;;;;;;;5.93;1.88;;;6.40;99.90;;;;;;4965852;28;20047;-90
2023/01/15 00:07:07;;;;;;;5.90;1.55;;;6.00;99.90;;;;;;4957275;28;20050;-90
2023/01/15 00:09:33;;;;;;;7.75;1.60;;;6.40;99.90;;;;;;4974565;28;20042;-88
2023/01/15 00:11:59;;;;;;;9.13;2.50;;;6.30;99.90;;;;;;4977187;28;20128;-89
2023/01/15 00:14:25;;;;;;;9.95;1.70;;;7.00;99.90;;;;;;4954743;28;20094;-89
2023/01/15 00:16:51;;;;;;;10.02;3.75;;;6.30;99.90;;;;;;4954667;28;20540;-90
2023/01/15 00:19:17;;;;;;;9.82;2.05;;;6.30;99.90;;;;;;4968009;28;20507;-88
2023/01/15 00:21:42;;;;;;;7.50;2.00;;;6.30;99.90;;;;;;4987529;28;20132;-90
2023/01/15 00:29:39;;;;;;;5.70;1.73;;;7.00;99.90;;;;;;4970006;28;20145;-89
2023/01/15 00:32:06;;;;;;;10.32;1.70;;;6.30;99.90;;;;;;4956295;28;20553;-89
2023/01/15 00:34:35;;;;;;;5.68;1.60;;;6.30;99.90;;;;;;4969531;28;20513;-89
2023/01/15 00:37:01;;;;;;;8.18;1.55;;;6.30;99.90;;;;;;4952549;28;20051;-89
2023/01/15 00:39:27;;;;;;;7.63;1.75;;;6.30;99.90;;;;;;4948116;28;20057;-89
2023/01/15 00:41:54;;;;;;;7.25;1.40;;;6.30;99.90;;;;;;4975329;28;20104;-89
2023/01/15 00:44:20;;;;;;;8.68;1.67;;;6.60;99.90;;;;;;4964271;28;20046;-89
2023/01/15 00:46:47;;;;;;;10.45;1.60;;;6.30;99.90;;;;;;4974096;28;20499;-90
2023/01/15 00:49:14;;;;;;;8.77;1.52;;;6.30;99.90;;;;;;4976419;28;20093;-89
2023/01/15 00:51:49;;;;;;;8.43;2.17;;;6.30;99.90;;;;;;4971679;28;20043;-88
2023/01/15 00:54:16;;;;;;;8.48;1.83;;;6.60;99.90;;;;;;4955191;28;20134;-89
2023/01/15 00:56:41;;;;;;;7.53;1.60;;;6.60;99.90;;;;;;4962326;28;20121;-88
2023/01/15 00:59:10;;;;;;;12.30;2.08;;;6.90;99.90;;;;;;4997200;28;20564;-92
2023/01/15 01:01:35;;;;;;;6.97;1.45;;;6.30;99.90;;;;;;4984654;28;20069;-91
2023/01/15 01:04:01;;;;;;;8.77;1.85;;;6.30;99.90;;;;;;4990862;28;20053;-89
2023/01/15 01:06:30;;;;;;;9.35;1.52;;;7.00;99.90;;;;;;4983321;28;20042;-91
2023/01/15 01:08:56;;;;;;;14.85;2.08;;;5.70;99.90;;;;;;4960101;28;20049;-93
2023/01/15 01:11:25;;;;;;;9.52;2.58;;;6.30;99.90;;;;;;4958683;28;20055;-90
2023/01/15 01:13:53;;;;;;;9.27;1.42;;;6.30;99.90;;;;;;4959312;28;20059;-91
2023/01/15 01:16:24;;;;;;;6.18;1.50;;;6.30;99.90;;;;;;4942876;28;20043;-92
2023/01/15 01:18:50;;;;;;;6.05;1.50;;;6.30;99.90;;;;;;4944986;28;20043;-92
2023/01/15 01:21:17;;;;;;;7.55;1.88;;;6.30;99.90;;;;;;4975417;28;20073;-91
2023/01/15 01:23:43;;;;;;;9.25;2.25;;;6.30;99.90;;;;;;4961195;28;20049;-92
2023/01/15 01:26:09;;;;;;;7.53;1.60;;;6.50;99.90;;;;;;4960665;28;20034;-92
2023/01/15 01:28:37;;;;;;;7.07;2.25;;;6.40;99.90;;;;;;4961483;28;20112;-91
2023/01/15 01:31:07;;;;;;;7.70;1.75;;;6.30;99.90;;;;;;4960511;28;20050;-93
2023/01/15 01:33:33;;;;;;;8.13;1.50;;;6.40;99.90;;;;;;4977874;28;20082;-92
2023/01/15 01:35:59;;;;;;;6.65;1.40;;;7.10;99.90;;;;;;4944636;28;20049;-93
2023/01/15 01:38:25;;;;;;;7.30;1.88;;;6.30;99.90;;;;;;4943798;28;20042;-91
2023/01/15 01:40:54;;;;;;;8.00;2.15;;;6.30;99.90;;;;;;4941127;28;20059;-92
2023/01/15 01:43:26;;;;;;;8.02;1.88;;;6.10;99.90;;;;;;4942439;28;20047;-91
2023/01/15 01:45:54;;;;;;;8.30;1.98;;;6.30;99.90;;;;;;4943980;28;20110;-91
2023/01/15 01:48:28;;;;;;;8.70;1.58;;;6.30;99.90;;;;;;4960882;28;20058;-92
2023/01/15 01:50:57;;;;;;;10.32;1.73;;;7.00;99.90;;;;;;4947651;28;20468;-92
2023/01/15 01:53:27;;;;;;;13.40;1.85;;;6.30;99.90;;;;;;4960818;28;20103;-93
2023/01/15 01:55:54;;;;;;;12.73;2.30;;;6.50;99.90;;;;;;4961059;28;20077;-92
2023/01/15 01:58:21;;;;;;;10.27;1.83;;;6.30;99.90;;;;;;4977159;28;20097;-91
2023/01/15 02:00:49;;;;;;;9.20;2.10;;;6.30;99.90;;;;;;4962067;28;20133;-91
2023/01/15 02:03:18;;;;;;;8.63;2.00;;;6.30;99.90;;;;;;4963176;28;20034;-92
2023/01/15 02:05:49;;;;;;;7.88;1.77;;;6.80;99.90;;;;;;4961190;28;20046;-93
2023/01/15 02:08:14;;;;;;;8.77;1.88;;;6.30;99.90;;;;;;4965264;28;20044;-92
2023/01/15 02:10:40;;;;;;;7.43;1.80;;;6.30;99.90;;;;;;4980094;28;20102;-92
2023/01/15 02:13:19;;;;;;;8.15;2.22;;;6.30;99.90;;;;;;4962645;28;20069;-92
2023/01/15 02:15:57;;;;;;;10.65;1.83;;;6.20;99.90;;;;;;4963126;28;20081;-93
2023/01/15 02:18:51;;;;;;;10.32;1.92;;;6.30;99.90;;;;;;4963459;28;20089;-93
2023/01/15 02:21:26;;;;;;;8.90;1.73;;;6.20;99.90;;;;;;4959203;28;20046;-91
2023/01/15 02:24:00;;;;;;;9.25;2.10;;;6.30;99.90;;;;;;4981194;28;20053;-92
2023/01/15 02:26:45;;;;;;;10.10;1.58;;;6.30;99.90;;;;;;4979229;28;20090;-92
2023/01/15 02:29:17;;;;;;;4.78;1.60;;;6.30;99.90;;;;;;4979868;28;20054;-91
2023/01/15 02:31:48;;;;;;;7.70;1.80;;;6.30;99.90;;;;;;4979118;28;20042;-93
2023/01/15 02:34:28;;;;;;;10.63;1.80;;;6.30;99.90;;;;;;4982389;28;20113;-92
2023/01/15 02:37:07;;;;;;;11.85;2.03;;;6.20;99.90;;;;;;4960664;28;20050;-92
2023/01/15 02:39:37;;;;;;;13.05;3.03;;;6.20;99.90;;;;;;4944210;28;20179;-92
2023/01/15 02:42:04;;;;;;;10.45;2.08;;;6.50;99.90;;;;;;4989322;28;20096;-93
2023/01/15 02:44:32;;;;;;;5.85;1.70;;;6.40;99.90;;;;;;4989480;28;20181;-91
2023/01/15 02:46:59;;;;;;;8.82;1.98;;;6.30;99.90;;;;;;4990706;28;20046;-91
2023/01/15 02:49:25;;;;;;;9.23;1.80;;;6.20;99.90;;;;;;4993197;28;20050;-91
2023/01/15 02:52:06;;;;;;;10.05;2.10;;;6.30;99.90;;;;;;4960095;28;20122;-93
2023/01/15 02:54:45;;;;;;;13.30;3.05;;;6.30;99.90;;;;;;4959689;28;20045;-92
2023/01/15 02:57:12;;;;;;;8.18;1.50;;;6.40;99.90;;;;;;4989328;28;20053;-92
2023/01/15 02:59:42;;;;;;;13.68;2.28;;;6.20;99.90;;;;;;4990851;28;20247;-91
2023/01/15 03:02:18;;;;;;;6.93;1.95;;;6.20;99.90;;;;;;4990287;28;20438;-91
2023/01/15 03:04:56;;;;;;;7.03;2.10;;;6.20;99.90;;;;;;4991259;28;20058;-92
2023/01/15 03:07:34;;;;;;;6.78;2.08;;;6.20;99.90;;;;;;4957671;28;20043;-92
2023/01/15 03:10:00;;;;;;;13.15;1.98;;;6.20;99.90;;;;;;4958371;28;20039;-91
2023/01/15 03:13:01;;;;;;;8.32;2.05;;;6.20;99.90;;;;;;4958063;28;20057;-92
2023/01/15 03:18:30;;;;;;;9.18;2.13;;;6.20;99.90;;;;;;4957273;28;20046;-90
2023/01/15 03:21:01;;;;;;;14.38;1.95;;;6.20;99.90;;;;;;4992729;28;20132;-91
2023/01/15 03:23:29;;;;;;;6.20;1.80;;;6.10;99.90;;;;;;4958693;28;20050;-92
2023/01/15 03:25:55;;;;;;;13.93;2.22;;;6.20;99.90;;;;;;4958128;28;20046;-91
2023/01/15 03:28:30;;;;;;;11.02;2.05;;;6.60;99.90;;;;;;4958404;28;20046;-92
2023/01/15 03:31:05;;;;;;;9.50;1.83;;;6.40;99.90;;;;;;4957583;28;20050;-93
2023/01/15 03:33:30;;;;;;;10.55;2.65;;;6.30;99.90;;;;;;4940864;28;20046;-92
2023/01/15 03:36:24;;;;;;;12.45;1.88;;;6.20;99.90;;;;;;4976688;28;20050;-93
2023/01/15 03:42:00;;;;;;;12.48;2.00;;;6.60;99.90;;;;;;4968958;28;20047;-92
2023/01/15 03:44:41;;;;;;;10.32;2.03;;;6.20;99.90;;;;;;4960685;28;20050;-92
2023/01/15 03:47:27;;;;;;;10.32;2.00;;;6.20;99.90;;;;;;4946554;28;20078;-92
2023/01/15 03:50:01;;;;;;;9.82;2.03;;;6.30;99.90;;;;;;5001936;28;20058;-91
2023/01/15 03:52:36;;;;;;;11.60;2.80;;;6.10;99.90;;;;;;4979862;28;20132;-91
2023/01/15 03:55:35;;;;;;;10.77;2.30;;;6.60;99.90;;;;;;4982749;28;20050;-90
2023/01/15 03:58:18;;;;;;;11.57;1.95;;;5.90;99.90;;;;;;4995954;28;20049;-91
2023/01/15 04:00:50;;;;;;;9.40;1.67;;;6.00;99.90;;;;;;4978646;28;20076;-91
2023/01/15 04:03:18;;;;;;;9.37;1.90;;;6.00;99.90;;;;;;4962615;28;20050;-92
2023/01/15 04:05:44;;;;;;;11.18;2.30;;;6.50;99.90;;;;;;4960001;28;20058;-90
2023/01/15 04:08:12;;;;;;;11.13;1.98;;;6.00;99.90;;;;;;4960492;28;20043;-92
2023/01/15 04:10:53;;;;;;;16.15;2.35;;;6.00;99.90;;;;;;4958439;28;20547;-92
2023/01/15 04:13:19;;;;;;;8.40;2.00;;;6.00;99.90;;;;;;4948048;28;20049;-91
2023/01/15 04:15:44;;;;;;;12.27;2.58;;;6.00;99.90;;;;;;4953786;28;20042;-89
2023/01/15 04:18:10;;;;;;;9.88;2.22;;;6.50;99.90;;;;;;4959005;28;20049;-92
2023/01/15 04:20:37;;;;;;;20.58;3.53;;;6.00;99.90;;;;;;4946468;28;20074;-90
2023/01/15 04:23:03;;;;;;;11.65;2.13;;;6.00;99.90;;;;;;4939260;28;20063;-91
2023/01/15 04:25:28;;;;;;;10.30;2.00;;;6.00;99.90;;;;;;4939148;28;20047;-92
2023/01/15 04:27:54;;;;;;;9.18;2.13;;;6.00;99.90;;;;;;4938696;28;20059;-92
2023/01/15 04:30:20;;;;;;;9.70;2.38;;;6.00;99.90;;;;;;4946397;28;20567;-91
2023/01/15 04:32:50;;;;;;;12.65;2.50;;;6.00;99.90;;;;;;4958342;28;20054;-90
2023/01/15 04:35:17;;;;;;;12.00;2.38;;;6.00;99.90;;;;;;4958847;28;20050;-91
2023/01/15 04:37:43;;;;;;;9.05;2.15;;;6.30;99.90;;;;;;4949335;28;20142;-92
2023/01/15 04:44:05;;;;;;;10.32;1.95;;;6.00;99.90;;;;;;4939428;28;20441;-91
2023/01/15 04:45:42;;;;;;;8.60;2.03;;;6.00;99.90;;;;;;4955295;28;20086;-91
2023/01/15 04:48:08;;;;;;;8.02;2.08;;;6.00;99.90;;;;;;4940553;28;20043;-91
2023/01/15 04:50:33;;;;;;;14.32;2.25;;;6.00;99.90;;;;;;4943648;28;20504;-90
2023/01/15 04:52:59;;;;;;;9.65;1.88;;;6.00;99.90;;;;;;4949930;28;20482;-90
2023/01/15 04:55:25;;;;;;;6.07;2.00;;;6.00;99.90;;;;;;4941516;28;20046;-91
2023/01/15 04:57:50;;;;;;;10.27;2.33;;;6.20;99.90;;;;;;4938739;28;20043;-91
2023/01/15 05:00:17;;;;;;;9.68;2.00;;;6.00;99.90;;;;;;4940484;28;20039;-91
2023/01/15 05:02:44;;;;;;;8.60;2.30;;;6.00;99.90;;;;;;4941272;28;20405;-90
2023/01/15 05:05:11;;;;;;;10.88;2.88;;;6.00;99.90;;;;;;4939383;28;20051;-90
2023/01/15 05:07:37;;;;;;;10.48;2.85;;;6.40;99.90;;;;;;4938817;28;20082;-90
2023/01/15 05:10:02;;;;;;;6.57;2.05;;;6.00;99.90;;;;;;4956246;28;20087;-91
2023/01/15 05:12:28;;;;;;;6.00;1.45;;;5.90;99.90;;;;;;4957410;28;20409;-90
2023/01/15 05:14:54;;;;;;;12.10;2.30;;;5.90;99.90;;;;;;4967260;28;20061;-92
2023/01/15 05:17:19;;;;;;;10.93;2.10;;;6.40;99.90;;;;;;4956154;28;20053;-91
2023/01/15 05:19:45;;;;;;;8.30;2.22;;;5.80;99.90;;;;;;4975818;28;20042;-90
2023/01/15 05:22:11;;;;;;;9.85;2.08;;;5.80;99.90;;;;;;4981748;28;20145;-91
2023/01/15 05:24:36;;;;;;;8.98;2.00;;;5.80;99.90;;;;;;4971846;28;20074;-91
2023/01/15 05:27:04;;;;;;;8.10;1.88;;;6.30;99.90;;;;;;4961956;28;20106;-92
2023/01/15 05:29:30;;;;;;;13.23;2.28;;;5.70;99.90;;;;;;4962316;28;20085;-91
2023/01/15 05:31:56;;;;;;;15.55;2.28;;;5.90;99.90;;;;;;4977885;28;20046;-91
2023/01/15 05:34:21;;;;;;;7.93;1.63;;;5.70;99.90;;;;;;4959224;28;20533;-90
2023/01/15 05:36:47;;;;;;;10.23;2.35;;;5.70;99.90;;;;;;4976659;28;20052;-90
2023/01/15 05:39:13;;;;;;;9.82;2.17;;;5.70;99.90;;;;;;4981788;28;20045;-91
2023/01/15 05:41:48;;;;;;;12.27;2.05;;;5.70;99.90;;;;;;4981692;28;20369;-92
2023/01/15 05:44:17;;;;;;;11.43;1.88;;;5.70;99.90;;;;;;4979420;28;20050;-90
2023/01/15 05:46:44;;;;;;;9.10;2.03;;;6.30;99.90;;;;;;4943277;28;20039;-91
2023/01/15 05:49:13;;;;;;;9.70;2.58;;;5.60;99.90;;;;;;4941542;28;20481;-92
2023/01/15 05:51:40;;;;;;;11.10;2.30;;;5.60;99.90;;;;;;4950864;28;20345;-91
2023/01/15 05:54:08;;;;;;;9.02;2.40;;;5.80;99.90;;;;;;4961801;28;20042;-93
2023/01/15 05:56:35;;;;;;;6.93;1.65;;;5.60;99.90;;;;;;4961618;28;20129;-89
2023/01/15 05:59:01;;;;;;;7.75;1.80;;;5.60;99.90;;;;;;4978606;28;20043;-92
2023/01/15 06:01:26;;;;;;;11.43;2.20;;;5.60;99.90;;;;;;4958322;28;20405;-90
2023/01/15 06:03:55;;;;;;;10.63;2.15;;;5.60;99.90;;;;;;4941716;28;20055;-90
2023/01/15 06:06:21;;;;;;;7.38;2.67;;;5.50;99.90;;;;;;4943417;28;20047;-91
2023/01/15 06:08:47;;;;;;;8.55;1.80;;;5.50;99.90;;;;;;4943052;28;20054;-91
2023/01/15 06:11:13;;;;;;;8.57;2.20;;;5.80;99.90;;;;;;4942246;28;20042;-92
2023/01/15 06:13:39;;;;;;;8.25;1.83;;;5.50;99.90;;;;;;4942895;28;20046;-90
2023/01/15 06:16:05;;;;;;;11.00;1.92;;;5.50;99.90;;;;;;4961019;28;20093;-90
2023/01/15 06:18:32;;;;;;;9.00;1.95;;;5.50;99.90;;;;;;4959358;28;20114;-91
2023/01/15 06:21:02;;;;;;;10.30;2.53;;;5.50;99.90;;;;;;4961047;28;20046;-91
2023/01/15 06:23:28;;;;;;;7.97;1.73;;;5.40;99.90;;;;;;4977469;28;20035;-91
2023/01/15 06:25:54;;;;;;;9.98;1.85;;;5.50;99.90;;;;;;4961480;28;20057;-90
2023/01/15 06:28:19;;;;;;;8.30;1.77;;;5.50;99.90;;;;;;4959937;28;20107;-91
2023/01/15 06:30:45;;;;;;;3.70;1.13;;;5.40;99.90;;;;;;4958155;28;20498;-92
2023/01/15 06:33:11;;;;;;;11.65;2.13;;;5.70;99.90;;;;;;4973241;28;20045;-91
2023/01/15 06:35:36;;;;;;;8.60;1.77;;;5.40;99.90;;;;;;4970513;28;20386;-91
2023/01/15 06:38:02;;;;;;;13.52;2.03;;;5.30;99.90;;;;;;4977374;28;20042;-92
2023/01/15 06:40:28;;;;;;;9.45;2.53;;;5.30;99.90;;;;;;4977672;28;20443;-90
2023/01/15 06:48:26;;;;;;;12.73;2.10;;;5.30;99.90;;;;;;4993322;28;20043;-91
2023/01/15 06:50:55;;;;;;;8.50;2.08;;;5.20;99.90;;;;;;4967424;28;20085;-91
2023/01/15 06:53:20;;;;;;;10.40;2.13;;;4.50;99.90;;;;;;4950917;28;20051;-90
2023/01/15 06:55:47;;;;;;;7.55;2.00;;;5.40;99.90;;;;;;4964871;28;20133;-89
2023/01/15 06:58:15;;;;;;;11.82;3.17;;;5.10;99.90;;;;;;4949235;28;20039;-92
2023/01/15 07:00:52;;;;;;;9.50;2.40;;;5.60;99.90;;;;;;4959839;28;20086;-89
2023/01/15 07:03:17;;;;;;;11.70;2.35;;;5.00;99.90;;;;;;4976795;28;20096;-91
2023/01/15 07:05:43;;;;;;;9.80;2.28;;;5.30;99.90;;;;;;4977293;28;20105;-90
2023/01/15 07:08:09;;;;;;;13.95;2.88;;;5.30;99.90;;;;;;4977519;28;20050;-90
2023/01/15 07:10:35;;;;;;;7.07;2.05;;;5.10;99.90;;;;;;4950527;28;20039;-89
2023/01/15 07:13:00;;;;;;;10.02;1.80;;;4.90;99.90;;;;;;4951509;28;20086;-89
2023/01/15 07:15:26;;;;;;;7.30;2.05;;;5.00;99.90;;;;;;4986039;28;20050;-90
2023/01/15 07:17:56;;;;;;;6.72;2.42;;;4.90;99.90;;;;;;4954734;28;20043;-88
2023/01/15 07:20:22;;;;;;;8.00;2.55;;;4.90;99.90;;;;;;4956194;28;20051;-88
2023/01/15 07:22:54;;;;;;;9.32;1.52;;;4.90;99.90;;;;;;4945324;28;20043;-88
2023/01/15 07:25:19;;;;;;;8.10;1.80;;;4.70;99.90;;;;;;4956954;28;20190;-88
2023/01/15 07:27:46;;;;;;;8.20;1.80;;;5.30;99.90;;;;;;4947380;28;20121;-86
2023/01/15 07:30:15;;;;;;;9.05;2.20;;;5.00;99.90;;;;;;4968807;28;20072;-87
2023/01/15 07:32:41;;;;;;;8.07;1.73;;;5.00;99.90;;;;;;4954076;28;20154;-86
2023/01/15 07:35:06;;;;;;;8.90;1.70;;;5.00;99.90;;;;;;4945100;28;20537;-91
2023/01/15 07:37:32;;;;;;;6.55;1.85;;;5.00;99.90;;;;;;4950601;29;20097;-91
2023/01/15 07:39:58;;;;;;;12.23;2.10;;;5.00;99.90;;;;;;4951749;28;20039;-90
2023/01/15 07:50:40;;;;;;;9.57;1.83;;;5.00;99.90;;;;;;4964681;28;20054;-88
2023/01/15 07:53:06;;;;;;;7.07;2.28;;;4.90;99.90;;;;;;4933321;28;20150;-88
2023/01/15 07:55:33;;;;;;;10.45;1.88;;;4.90;99.90;;;;;;4949541;28;20054;-88
2023/01/15 07:57:59;;;;;;;6.95;1.60;;;4.90;99.90;;;;;;4952731;28;20094;-90
2023/01/15 08:00:24;;;;;;;8.93;1.88;;;4.90;99.90;;;;;;4953926;28;20070;-89
2023/01/15 08:02:50;;;;;;;8.82;1.48;;;4.90;99.90;;;;;;4969361;28;20137;-88
2023/01/15 08:05:17;;;;;;;6.20;1.77;;;4.90;99.90;;;;;;4968085;28;20054;-90
2023/01/15 08:07:43;;;;;;;11.27;2.47;;;5.70;99.90;;;;;;4968382;28;20051;-89
2023/01/15 08:10:10;;;;;;;9.07;1.63;;;4.90;99.90;;;;;;4953444;28;20124;-90
2023/01/15 08:15:20;;;;;;;10.60;2.47;;;4.90;99.90;;;;;;4982932;28;20046;-90
2023/01/15 08:17:48;;;;;;;10.77;1.80;;;4.90;99.90;;;;;;4960641;28;20618;-90
2023/01/15 08:20:25;;;;;;;8.38;2.03;;;4.90;99.90;;;;;;4951289;28;20051;-91
2023/01/15 08:22:56;;;;;;;7.25;1.80;;;4.90;99.90;;;;;;4950524;28;20055;-88
2023/01/15 08:25:24;;;;;;;4.63;1.70;;;4.90;99.90;;;;;;4951324;28;20039;-89
2023/01/15 08:27:50;;;;;;;11.13;3.15;;;5.00;99.90;;;;;;4950037;28;20054;-90
2023/01/15 08:30:19;;;;;;;7.93;1.63;;;5.50;99.90;;;;;;4949699;28;20055;-90
2023/01/15 08:32:45;;;;;;;8.55;2.10;;;5.00;99.90;;;;;;4950136;28;20118;-90
2023/01/15 08:35:11;;;;;;;8.15;2.40;;;5.00;99.90;;;;;;4954178;28;20047;-89
2023/01/15 08:37:45;;;;;;;8.10;2.08;;;5.00;99.90;;;;;;4960966;28;20081;-90
2023/01/15 08:40:11;;;;;;;7.88;1.77;;;5.30;99.90;;;;;;4952847;28;20498;-90
2023/01/15 08:42:37;;;;;;;8.90;1.88;;;5.20;99.90;;;;;;4954195;28;20266;-90
2023/01/15 08:45:03;;;;;;;7.50;1.73;;;5.10;99.90;;;;;;4954140;28;20255;-91
2023/01/15 08:47:30;;;;;;;5.43;1.50;;;5.10;99.90;;;;;;4953539;28;20046;-91
2023/01/15 08:49:58;;;;;;;8.52;1.58;;;5.20;99.90;;;;;;4954314;28;20509;-90
2023/01/15 08:52:24;;;;;;;11.60;2.22;;;5.30;99.90;;;;;;4952508;28;20058;-90
2023/01/15 08:54:50;;;;;;;6.68;1.60;;;5.30;99.90;;;;;;4970144;28;20042;-91
2023/01/15 08:57:15;;;;;;;6.28;1.65;;;5.40;99.90;;;;;;4972511;28;20042;-91
2023/01/15 08:59:42;;;;;;;10.32;2.35;;;6.00;99.90;;;;;;4972885;28;20046;-90
2023/01/15 09:02:11;;;;;;;11.25;2.13;;;5.50;99.90;;;;;;4973109;28;20046;-90
2023/01/15 09:04:39;;;;;;;6.75;1.88;;;5.50;99.90;;;;;;4972919;28;20053;-90
2023/01/15 09:07:05;;;;;;;11.13;2.20;;;5.50;99.90;;;;;;4962103;28;20494;-92
2023/01/15 09:09:32;;;;;;;10.32;1.75;;;5.20;99.90;;;;;;4943103;29;20082;-89
2023/01/15 09:11:57;;;;;;;9.60;1.92;;;4.80;99.90;;;;;;4953576;28;20054;-91
2023/01/15 09:14:28;;;;;;;6.63;1.55;;;4.50;99.90;;;;;;4954669;28;20051;-93
2023/01/15 09:16:57;;;;;;;5.95;1.55;;;4.40;99.90;;;;;;4954868;28;20055;-93
2023/01/15 09:19:22;;;;;;;6.05;1.30;;;4.20;99.90;;;;;;4956351;28;20054;-92
2023/01/15 09:21:56;;;;;;;3.85;1.05;;;4.10;99.90;;;;;;4957382;28;20398;-91
2023/01/15 09:24:22;;;;;;;5.22;1.40;;;4.00;99.90;;;;;;4972152;28;20074;-93
2023/01/15 09:26:53;;;;;;;4.40;1.20;;;4.00;99.90;;;;;;4946002;29;20576;-94
2023/01/15 09:29:24;;;;;;;3.72;0.95;;;4.20;99.90;;;;;;4957643;28;20146;-93
2023/01/15 09:31:53;;;;;;;3.00;1.15;;;3.90;99.90;;;;;;4976094;28;20053;-93
2023/01/15 09:34:19;;;;;;;5.18;1.05;;;3.90;99.90;;;;;;4956968;28;20062;-90
2023/01/15 09:36:46;;;;;;;7.55;1.42;;;3.90;99.90;;;;;;4960157;29;20043;-93
2023/01/15 09:39:12;;;;;;;4.78;1.35;;;4.00;99.90;;;;;;4959691;28;20039;-92
2023/01/15 09:42:08;;;;;;;4.13;1.30;;;4.00;99.90;;;;;;4973896;28;20057;-93
2023/01/15 09:45:11;;;;;;;9.63;1.77;;;4.00;99.90;;;;;;4962593;28;20122;-92
2023/01/15 09:47:55;;;;;;;5.00;1.42;;;4.00;99.90;;;;;;5000218;28;20050;-91
2023/01/15 09:50:30;;;;;;;5.43;1.45;;;4.00;99.90;;;;;;4963394;28;20046;-93
2023/01/15 09:53:20;;;;;;;6.45;1.42;;;4.10;99.90;;;;;;4962365;28;20089;-93
2023/01/15 09:55:49;;;;;;;7.18;1.50;;;4.20;99.90;;;;;;4993812;28;20054;-93
2023/01/15 09:58:19;;;;;;;8.18;1.92;;;4.80;99.90;;;;;;4957629;28;20054;-92
2023/01/15 10:00:49;;;;;;;7.57;1.98;;;4.30;99.90;;;;;;4956918;28;20058;-93
2023/01/15 10:03:34;;;;;;;7.18;1.90;;;4.40;99.90;;;;;;4963924;28;20047;-93
2023/01/15 10:06:20;;;;;;;6.95;1.63;;;4.40;99.90;;;;;;4956753;28;20035;-91
2023/01/15 10:08:49;;;;;;;9.38;1.70;;;4.50;99.90;;;;;;4958119;29;20054;-93
2023/01/15 10:11:17;;;;;;;6.07;1.85;;;4.50;99.90;;;;;;4954561;29;20050;-93
2023/01/15 10:14:00;;;;;;;9.65;2.15;;;4.60;99.90;;;;;;4967831;28;20050;-93
2023/01/15 10:16:30;;;;;;;8.32;2.42;;;4.60;99.90;;;;;;4959991;28;20056;-92
2023/01/15 10:19:01;;;;;;;9.10;2.45;;;4.70;99.90;;;;;;4961087;28;20047;-93
2023/01/15 10:22:05;;;;;;;6.20;1.83;;;4.60;99.90;;;;;;4958454;28;20074;-92
2023/01/15 10:24:41;;;;;;;5.25;1.45;;;4.80;99.90;;;;;;4945599;29;20526;-90
2023/01/15 10:27:25;;;;;;;10.40;1.90;;;4.80;99.90;;;;;;4965451;28;20039;-92
2023/01/15 10:30:05;;;;;;;8.55;1.65;;;4.20;99.90;;;;;;4970161;28;20138;-87
2023/01/15 10:32:48;;;;;;;7.20;1.30;;;4.80;99.90;;;;;;4987522;28;20508;-89
2023/01/15 10:35:14;;;;;;;4.63;1.60;;;4.70;99.90;;;;;;4965171;28;20043;-88
2023/01/15 10:38:21;;;;;;;9.10;1.83;;;4.60;99.90;;;;;;4983529;28;20048;-87
2023/01/15 10:40:47;;;;;;;12.93;4.95;;;4.60;99.90;;;;;;4936544;29;20048;-88
2023/01/15 10:43:39;;;;;;;7.78;1.90;;;4.50;99.90;;;;;;4951853;29;20040;-88
2023/01/15 10:46:19;;;;;;;7.50;1.80;;;4.50;99.90;;;;;;4951452;29;20063;-88
2023/01/15 10:49:01;;;;;;;8.57;1.88;;;4.60;99.90;;;;;;4949803;28;20133;-89
2023/01/15 10:51:44;;;;;;;9.13;1.95;;;4.60;99.90;;;;;;4941350;29;20129;-88
2023/01/15 10:54:41;;;;;;;5.78;2.10;;;4.80;99.90;;;;;;4953484;29;20040;-88
2023/01/15 10:57:16;;;;;;;11.85;2.30;;;5.00;99.90;;;;;;4954576;28;20055;-89
2023/01/15 11:00:00;;;;;;;12.68;2.38;;;5.10;99.90;;;;;;4938418;29;20090;-89
2023/01/15 11:02:50;;;;;;;13.10;2.10;;;5.20;99.90;;;;;;4937109;28;20051;-88
2023/01/15 11:05:20;;;;;;;6.40;1.70;;;5.20;99.90;;;;;;4960889;28;20043;-88
2023/01/15 11:07:51;;;;;;;8.82;1.80;;;5.60;99.90;;;;;;4955431;28;20043;-87
2023/01/15 11:10:20;;;;;;;8.02;2.10;;;5.50;99.90;;;;;;4954892;28;20657;-88
2023/01/15 11:21:30;;;;;;;10.02;1.73;;;5.90;99.90;;;;;;4939811;28;20395;-92
2023/01/15 11:23:58;;;;;;;9.07;1.95;;;6.40;99.90;;;;;;4952077;28;20051;-92
2023/01/15 11:26:30;;;;;;;7.90;2.00;;;6.60;99.90;;;;;;4959080;28;20089;-89
2023/01/15 11:28:57;;;;;;;11.30;1.95;;;6.00;99.90;;;;;;4957465;28;20077;-89
2023/01/15 11:31:35;;;;;;;10.02;1.98;;;6.00;99.90;;;;;;4979543;28;20046;-89
2023/01/15 11:34:05;;;;;;;11.23;2.05;;;5.90;99.90;;;;;;4976176;28;20058;-90
2023/01/15 11:36:31;;;;;;;10.23;2.15;;;6.00;99.90;;;;;;4967436;28;20055;-89
2023/01/15 11:38:57;;;;;;;8.43;1.70;;;6.80;99.90;;;;;;4966128;28;20044;-90
2023/01/15 11:52:56;;;;;;;5.55;1.67;;;6.70;99.90;;;;;;4958008;28;20047;-89
2023/01/15 11:55:25;;;;;;;15.00;2.97;;;7.40;99.90;;;;;;4962605;28;20486;-88
2023/01/15 11:57:51;;;;;;;9.02;1.90;;;7.00;99.90;;;;;;4971865;28;20393;-91
2023/01/15 12:00:22;;;;;;;7.75;1.60;;;7.00;99.90;;;;;;4973999;28;20050;-91
2023/01/15 12:02:53;;;;;;;10.70;2.15;;;6.60;99.90;;;;;;4960003;28;20049;-90
2023/01/15 12:05:34;;;;;;;9.63;1.95;;;6.60;99.90;;;;;;4968823;28;20042;-90
2023/01/15 12:08:11;;;;;;;8.82;2.10;;;6.90;99.90;;;;;;4951985;28;20307;-88
2023/01/15 12:11:03;;;;;;;5.95;1.55;;;7.00;99.90;;;;;;4954066;28;20062;-91
2023/01/15 12:13:50;;;;;;;10.90;1.77;;;6.70;99.90;;;;;;4951457;28;20047;-89
2023/01/15 12:16:30;;;;;;;10.35;1.65;;;6.50;99.90;;;;;;4967858;28;20042;-91
2023/01/15 12:19:20;;;;;;;12.63;2.78;;;6.60;99.90;;;;;;4961623;28;20125;-89
2023/01/15 12:22:00;;;;;;;11.13;2.25;;;6.60;99.90;;;;;;4977839;28;20053;-88
2023/01/15 12:24:35;;;;;;;7.82;2.28;;;6.90;99.90;;;;;;4971914;28;20477;-87
2023/01/15 12:27:10;;;;;;;11.05;2.17;;;;;;;;;;4976595;28;20049;-88
2023/01/15 12:29:42;;;;;;;10.43;2.30;;;;;;;;;;4988966;28;20058;-89
2023/01/15 12:32:10;;;;;;;7.35;1.60;;;;;;;;;;5003795;28;20046;-88
2023/01/15 12:34:44;;;;;;;10.43;1.88;;;;;;;;;;4988149;28;20477;-88
2023/01/15 12:37:19;;;;;;;6.32;2.00;;;;;;;;;;4983070;28;20160;-88
2023/01/15 12:39:48;;;;;;;8.90;2.22;;;;;;;;;;4987195;28;20050;-87
2023/01/15 12:45:04;;;;;;;9.75;2.05;;;;;;;;;;4979869;28;20496;-88
2023/01/15 12:47:50;;;;;;;7.15;1.67;;;;;;;;;;4985586;28;20132;-90
2023/01/15 12:50:35;;;;;;;10.20;2.03;;;;;;;;;;4964825;28;20041;-88
2023/01/15 12:53:08;;;;;;;8.93;1.67;;;;;;;;;;4994564;28;20148;-88
2023/01/15 12:55:39;;;;;;;7.72;1.55;;;;;;;;;;4983937;28;20045;-89
2023/01/15 12:58:10;;;;;;;9.25;1.85;;;;;;;;;;5001845;28;20046;-88
2023/01/15 13:00:44;;;;;;;7.20;1.33;;;;;;;;;;4984190;28;20046;-89
2023/01/15 13:03:17;;;;;;;10.65;1.80;;;;;;;;;;4992558;28;20081;-87
2023/01/15 13:06:05;;;;;;;6.75;2.05;;;;;;;;;;4967985;28;20046;-90
2023/01/15 13:08:49;;;;;;;6.55;1.40;;;;;;;;;;4985477;28;20097;-87
2023/01/15 13:11:15;;;;;;;4.82;1.45;;;;;;;;;;4978041;28;20053;-90
2023/01/15 13:13:42;;;;;;;4.75;1.20;;;;;;;;;;4983651;28;20042;-87
2023/01/15 13:16:11;;;;;;;7.32;1.60;;;;;;;;;;4984928;28;20046;-89
2023/01/15 13:18:37;;;;;;;5.85;1.60;;;;;;;;;;4982472;28;20045;-90
2023/01/15 13:21:09;;;;;;;6.05;1.58;;;;;;;;;;4983277;28;20043;-90
2023/01/15 13:23:48;;;;;;;8.77;1.70;;;;;;;;;;4963929;28;20039;-90
2023/01/15 13:26:50;;;;;;;8.38;1.85;;;6.60;99.90;;;;;;4986451;28;20042;-88
2023/01/15 13:29:25;;;;;;;4.90;1.08;;;6.70;99.90;;;;;;4969209;28;20501;-88
2023/01/15 13:32:02;;;;;;;7.00;1.60;;;6.60;99.90;;;;;;4955759;28;20051;-89
2023/01/15 13:34:54;;;;;;;15.52;2.00;;;6.70;99.90;;;;;;4954201;28;20676;-88
2023/01/15 13:37:34;;;;;;;8.35;2.08;;;6.80;99.90;;;;;;4952389;28;20462;-89
2023/01/15 13:40:05;;;;;;;16.10;1.80;;;;;;;;;;4954902;28;20100;-89
2023/01/15 13:42:31;;;;;;;9.27;1.75;;;6.70;99.90;;;;;;4971439;28;20051;-90
2023/01/15 13:45:26;;;;;;;7.93;1.83;;;6.50;99.90;;;;;;4971458;28;20054;-90
2023/01/15 13:47:58;;;;;;;15.55;3.15;;;6.60;99.90;;;;;;4961173;28;20195;-90
2023/01/15 13:50:35;;;;;;;6.83;2.20;;;;;;;;;;4956138;28;20759;-89
2023/01/15 13:53:09;;;;;;;10.13;1.80;;;;;;;;;;4971453;28;20382;-90
2023/01/15 13:55:38;;;;;;;9.65;1.92;;;;;;;;;;4970520;28;20564;-90
2023/01/15 13:58:19;;;;;;;10.82;2.10;;;;;;;;;;4971261;28;20489;-89
2023/01/15 14:00:49;;;;;;;8.30;2.25;;;;;;;;;;4970706;28;20062;-89
2023/01/15 14:03:33;;;;;;;9.20;2.00;;;;;;;;;;4969067;28;20054;-91
2023/01/15 14:06:12;;;;;;;9.50;2.22;;;;;;;;;;4962628;28;20049;-90
2023/01/15 14:08:45;;;;;;;9.77;2.63;;;;;;;;;;4952848;29;20088;-89
2023/01/15 14:11:43;;;;;;;4.50;1.23;;;;;;;;;;4950955;29;20502;-90
2023/01/15 14:14:30;;;;;;;2.08;0.65;;;;;;;;;;4939709;28;20046;-91
2023/01/15 14:17:06;;;;;;;3.70;0.80;;;;;;;;;;4952091;28;20046;-89
2023/01/15 14:19:43;;;;;;;4.07;0.70;;;;;;;;;;4972351;28;20055;-88
2023/01/15 14:22:30;;;;;;;4.70;1.30;;;;;;;;;;4970192;28;20053;-89